Time;durP1;ratioP1;P1;durP2;ratioP2;P2;SDS_P1;SDS_P2;PMS_P1;PMS_P2;Temp;Humidity;BMP_temperature;BMP_pressure;BME280_temperature;BME280_humidity;BME280_pressure;Samples;Min_cycle;Max_cycle;Signal;HPM_P1;HPM_P2
2023/09/07 00:00:18;;;;;;;;;;;26.50;59.40;;;;;;5028676;28;43026;-79
2023/09/07 00:02:44;;;;;;;;;;;26.30;59.10;;;;;;5029356;28;42898;-76
2023/09/07 00:05:09;;;;;;;;;;;26.50;59.40;;;;;;5029920;28;43083;-75
2023/09/07 00:07:35;;;;;;;;;;;26.50;59.30;;;;;;5035817;28;42972;-79
2023/09/07 00:10:01;;;;;;;;;;;26.50;59.40;;;;;;5029695;28;42930;-75
2023/09/07 00:12:27;;;;;;;;;;;26.40;59.40;;;;;;5023971;28;43075;-78
2023/09/07 00:14:54;;;;;;;;;;;26.40;59.40;;;;;;5027149;28;43428;-76
2023/09/07 00:17:19;;;;;;;;;;;26.30;59.50;;;;;;5028557;28;43035;-80
2023/09/07 00:19:47;;;;;;;;;;;26.40;59.40;;;;;;5028305;28;42857;-78
2023/09/07 00:22:12;;;;;;;;;;;26.50;59.50;;;;;;5024419;28;42947;-79
2023/09/07 00:24:38;;;;;;;;;;;26.40;59.50;;;;;;5024559;28;43323;-75
2023/09/07 00:27:05;;;;;;;;;;;26.60;59.70;;;;;;5025232;28;43036;-78
2023/09/07 00:29:31;;;;;;;;;;;26.30;59.20;;;;;;5027352;28;43607;-74
2023/09/07 00:31:56;;;;;;;;;;;26.40;59.60;;;;;;5025280;28;42958;-76
2023/09/07 00:34:22;;;;;;;;;;;26.60;59.80;;;;;;5030329;28;44930;-79
2023/09/07 00:36:47;;;;;;;;;;;26.30;59.60;;;;;;5026794;28;43059;-75
2023/09/07 00:39:13;;;;;;;;;;;26.50;59.80;;;;;;5031344;28;43041;-75
2023/09/07 00:41:38;;;;;;;;;;;26.50;59.30;;;;;;5028291;28;43016;-75
2023/09/07 00:44:04;;;;;;;;;;;26.50;59.80;;;;;;5028090;28;42835;-75
2023/09/07 00:46:29;;;;;;;;;;;26.50;59.40;;;;;;5036560;28;42879;-75
2023/09/07 00:48:55;;;;;;;;;;;26.50;59.50;;;;;;5043458;28;43587;-74
2023/09/07 00:51:21;;;;;;;;;;;26.30;59.80;;;;;;5031339;28;43537;-76
2023/09/07 00:53:47;;;;;;;;;;;26.40;59.70;;;;;;5041682;28;42882;-76
2023/09/07 00:56:13;;;;;;;;;;;26.40;59.80;;;;;;5043714;28;42934;-76
2023/09/07 00:58:38;;;;;;;;;;;26.30;59.90;;;;;;5043611;28;42962;-77
2023/09/07 01:01:04;;;;;;;;;;;26.30;60.00;;;;;;5031797;28;42914;-75
2023/09/07 01:03:29;;;;;;;;;;;26.30;60.00;;;;;;5031130;28;43029;-76
2023/09/07 01:06:00;;;;;;;;;;;26.40;59.90;;;;;;5028890;28;43001;-79
2023/09/07 01:08:32;;;;;;;;;;;26.50;57.90;;;;;;5037265;28;43425;-75
2023/09/07 01:10:58;;;;;;;;;;;26.40;57.80;;;;;;5037186;28;42850;-74
2023/09/07 01:13:23;;;;;;;;;;;26.40;60.00;;;;;;5024664;28;43524;-76
2023/09/07 01:15:50;;;;;;;;;;;26.70;60.10;;;;;;5023690;28;43172;-76
2023/09/07 01:18:17;;;;;;;;;;;26.40;59.50;;;;;;5021934;28;45065;-78
2023/09/07 01:20:44;;;;;;;;;;;26.50;59.90;;;;;;5036062;28;42919;-74
2023/09/07 01:23:10;;;;;;;;;;;26.50;60.00;;;;;;5023290;28;42898;-76
2023/09/07 01:25:36;;;;;;;;;;;26.40;59.80;;;;;;5023601;28;43015;-78
2023/09/07 01:28:01;;;;;;;;;;;26.10;59.30;;;;;;5024475;28;43139;-75
2023/09/07 01:30:27;;;;;;;;;;;26.40;59.80;;;;;;5039512;28;43002;-80
2023/09/07 01:32:52;;;;;;;;;;;26.30;60.40;;;;;;5026026;28;42902;-75
2023/09/07 01:35:21;;;;;;;;;;;26.30;60.10;;;;;;5039689;28;43609;-78
2023/09/07 01:37:47;;;;;;;;;;;26.30;60.00;;;;;;5035574;28;42837;-77
2023/09/07 01:40:13;;;;;;;;;;;26.30;60.00;;;;;;5040008;28;43137;-74
2023/09/07 01:42:38;;;;;;;;;;;26.30;59.90;;;;;;5025973;28;43450;-76
2023/09/07 01:45:04;;;;;;;;;;;26.50;59.70;;;;;;5030952;28;43002;-79
2023/09/07 01:47:29;;;;;;;;;;;26.30;59.50;;;;;;5027784;28;43610;-75
2023/09/07 01:49:55;;;;;;;;;;;26.30;60.20;;;;;;5030459;28;42971;-79
2023/09/07 01:52:20;;;;;;;;;;;26.30;60.10;;;;;;5023677;28;43093;-75
2023/09/07 01:54:46;;;;;;;;;;;26.40;60.50;;;;;;5029965;28;43024;-74
2023/09/07 01:57:11;;;;;;;;;;;26.40;60.40;;;;;;5027690;28;42871;-79
2023/09/07 01:59:37;;;;;;;;;;;26.30;60.50;;;;;;5030356;28;43001;-75
2023/09/07 02:02:02;;;;;;;;;;;26.30;60.10;;;;;;5026978;28;43649;-75
2023/09/07 02:04:28;;;;;;;;;;;26.30;59.90;;;;;;5019572;28;44254;-78
2023/09/07 02:06:53;;;;;;;;;;;26.30;60.30;;;;;;5024476;28;43966;-75
2023/09/07 02:09:19;;;;;;;;;;;26.40;59.70;;;;;;5029498;28;44074;-75
2023/09/07 02:11:44;;;;;;;;;;;26.40;59.80;;;;;;5025109;28;42925;-79
2023/09/07 02:14:10;;;;;;;;;;;26.40;60.20;;;;;;5028271;28;43067;-74
2023/09/07 02:16:36;;;;;;;;;;;26.50;60.50;;;;;;5024479;28;43663;-74
2023/09/07 02:19:03;;;;;;;;;;;26.30;60.10;;;;;;5021222;28;43037;-75
2023/09/07 02:21:29;;;;;;;;;;;26.30;60.10;;;;;;5035297;28;44588;-79
2023/09/07 02:23:54;;;;;;;;;;;26.30;60.10;;;;;;5034895;28;42950;-79
2023/09/07 02:26:20;;;;;;;;;;;26.40;60.50;;;;;;5040249;28;43934;-74
2023/09/07 02:28:45;;;;;;;;;;;26.30;60.20;;;;;;5045212;28;43106;-77
2023/09/07 02:31:11;;;;;;;;;;;26.40;59.70;;;;;;5036343;28;43056;-79
2023/09/07 02:33:36;;;;;;;;;;;26.30;59.70;;;;;;5036703;28;43024;-75
2023/09/07 02:36:02;;;;;;;;;;;26.70;60.60;;;;;;5043183;28;42965;-76
2023/09/07 02:38:28;;;;;;;;;;;26.40;59.90;;;;;;5044830;28;43085;-75
2023/09/07 02:40:55;;;;;;;;;;;26.30;60.20;;;;;;5042814;28;43016;-77
2023/09/07 02:43:20;;;;;;;;;;;26.40;60.20;;;;;;5037573;28;43018;-79
2023/09/07 02:45:46;;;;;;;;;;;26.30;59.60;;;;;;5042039;28;42972;-79
2023/09/07 02:48:11;;;;;;;;;;;26.30;60.30;;;;;;5032491;28;43061;-75
2023/09/07 02:50:37;;;;;;;;;;;26.30;60.00;;;;;;5034023;28;43892;-75
2023/09/07 02:53:04;;;;;;;;;;;26.40;59.60;;;;;;5039181;28;43177;-78
2023/09/07 02:55:29;;;;;;;;;;;26.30;60.10;;;;;;5034279;28;43028;-79
2023/09/07 02:57:59;;;;;;;;;;;26.40;60.00;;;;;;5032968;28;42980;-79
2023/09/07 03:00:24;;;;;;;;;;;26.30;58.10;;;;;;5035430;28;43580;-76
2023/09/07 03:02:50;;;;;;;;;;;26.50;60.20;;;;;;5039217;28;42893;-75
2023/09/07 03:05:16;;;;;;;;;;;26.30;59.70;;;;;;5034205;28;43071;-75
2023/09/07 03:07:41;;;;;;;;;;;26.40;60.30;;;;;;5041578;28;43219;-78
2023/09/07 03:10:07;;;;;;;;;;;26.30;60.10;;;;;;5052377;28;44393;-75
2023/09/07 03:12:33;;;;;;;;;;;26.30;59.60;;;;;;5035691;28;43163;-79
2023/09/07 03:15:03;;;;;;;;;;;26.30;60.10;;;;;;5037579;28;43661;-75
2023/09/07 03:17:28;;;;;;;;;;;26.10;60.30;;;;;;5041283;28;42975;-78
2023/09/07 03:19:54;;;;;;;;;;;26.30;59.60;;;;;;5025217;28;43014;-79
2023/09/07 03:22:19;;;;;;;;;;;26.30;60.10;;;;;;5026644;28;42895;-75
2023/09/07 03:24:45;;;;;;;;;;;26.30;60.00;;;;;;5044392;28;43178;-75
2023/09/07 03:27:11;;;;;;;;;;;26.50;60.40;;;;;;5043259;28;42985;-76
2023/09/07 03:29:36;;;;;;;;;;;26.20;60.00;;;;;;5025760;28;43444;-79
2023/09/07 03:32:02;;;;;;;;;;;26.30;60.10;;;;;;5023886;28;42897;-76
2023/09/07 03:34:28;;;;;;;;;;;26.20;59.70;;;;;;5024658;28;43521;-75
2023/09/07 03:36:53;;;;;;;;;;;26.10;60.00;;;;;;5025476;28;42982;-75
2023/09/07 03:39:21;;;;;;;;;;;26.30;60.10;;;;;;5024347;28;43072;-75
2023/09/07 03:41:46;;;;;;;;;;;26.30;60.30;;;;;;5026350;28;43386;-75
2023/09/07 03:44:12;;;;;;;;;;;26.20;60.10;;;;;;5025801;28;43029;-74
2023/09/07 03:46:37;;;;;;;;;;;26.30;60.10;;;;;;5026475;28;42934;-74
2023/09/07 03:49:03;;;;;;;;;;;26.40;60.20;;;;;;5025627;28;42843;-79
2023/09/07 03:51:28;;;;;;;;;;;26.20;59.90;;;;;;5026046;28;42930;-75
2023/09/07 03:53:54;;;;;;;;;;;26.30;60.00;;;;;;5024655;28;42910;-80
2023/09/07 03:56:19;;;;;;;;;;;26.20;60.00;;;;;;5027253;28;42949;-75
2023/09/07 03:58:47;;;;;;;;;;;26.20;60.10;;;;;;5026479;28;43802;-79
2023/09/07 04:01:13;;;;;;;;;;;26.30;59.90;;;;;;5032554;28;43045;-79
2023/09/07 04:03:40;;;;;;;;;;;26.50;60.10;;;;;;5040485;28;42964;-75
2023/09/07 04:06:05;;;;;;;;;;;26.30;60.00;;;;;;5041817;28;43031;-79
2023/09/07 04:08:31;;;;;;;;;;;26.30;59.60;;;;;;5041013;28;43080;-75
2023/09/07 04:10:56;;;;;;;;;;;26.30;60.10;;;;;;5037497;28;42906;-80
2023/09/07 04:13:22;;;;;;;;;;;26.30;59.60;;;;;;5023030;28;42832;-79
2023/09/07 04:15:47;;;;;;;;;;;26.30;60.10;;;;;;5028438;28;43667;-75
2023/09/07 04:18:15;;;;;;;;;;;26.30;60.30;;;;;;5030793;28;43017;-77
2023/09/07 04:20:40;;;;;;;;;;;26.30;59.60;;;;;;5023916;28;43017;-75
2023/09/07 04:23:06;;;;;;;;;;;26.20;60.00;;;;;;5025388;28;42932;-75
2023/09/07 04:25:32;;;;;;;;;;;26.30;60.10;;;;;;5007840;28;42961;-76
2023/09/07 04:27:58;;;;;;;;;;;26.30;60.40;;;;;;5026697;28;43549;-84
2023/09/07 04:30:23;;;;;;;;;;;26.10;60.10;;;;;;5025218;28;42884;-76
2023/09/07 04:32:49;;;;;;;;;;;26.10;60.00;;;;;;5023587;28;43380;-84
2023/09/07 04:35:15;;;;;;;;;;;26.30;60.20;;;;;;5024346;28;42978;-75
2023/09/07 04:37:44;;;;;;;;;;;26.20;60.00;;;;;;5018813;28;42967;-80
2023/09/07 04:40:09;;;;;;;;;;;26.30;58.20;;;;;;5027170;28;42965;-81
2023/09/07 04:42:35;;;;;;;;;;;26.30;59.50;;;;;;5024208;28;43136;-76
2023/09/07 04:45:01;;;;;;;;;;;26.20;60.40;;;;;;5023388;28;43633;-86
2023/09/07 04:47:26;;;;;;;;;;;26.10;60.00;;;;;;5031921;28;43463;-76
2023/09/07 04:49:52;;;;;;;;;;;26.20;60.30;;;;;;5032359;28;43098;-75
2023/09/07 04:52:17;;;;;;;;;;;26.00;59.90;;;;;;5023029;28;43462;-76
2023/09/07 04:54:43;;;;;;;;;;;26.20;59.90;;;;;;5021555;28;43091;-85
2023/09/07 04:57:09;;;;;;;;;;;26.20;59.60;;;;;;5027377;28;42858;-84
2023/09/07 04:59:34;;;;;;;;;;;26.20;60.20;;;;;;5027147;28;42968;-75
2023/09/07 05:02:03;;;;;;;;;;;26.30;60.40;;;;;;5022719;28;42898;-80
2023/09/07 05:04:29;;;;;;;;;;;26.30;60.10;;;;;;5014495;28;43368;-82
2023/09/07 05:06:56;;;;;;;;;;;26.30;59.60;;;;;;5028903;28;42924;-82
2023/09/07 05:09:21;;;;;;;;;;;26.20;59.90;;;;;;5024896;28;43062;-76
2023/09/07 05:11:47;;;;;;;;;;;26.40;59.70;;;;;;5025293;28;43352;-83
2023/09/07 05:14:12;;;;;;;;;;;26.20;60.00;;;;;;5031456;28;43055;-84
2023/09/07 05:16:37;;;;;;;;;;;26.20;60.20;;;;;;5031814;28;43350;-77
2023/09/07 05:19:03;;;;;;;;;;;26.30;60.10;;;;;;5028564;28;43030;-85
2023/09/07 05:21:28;;;;;;;;;;;26.40;60.30;;;;;;5019446;28;43859;-85
2023/09/07 05:23:54;;;;;;;;;;;26.20;60.10;;;;;;5018939;28;43345;-83
2023/09/07 05:26:25;;;;;;;;;;;26.10;59.90;;;;;;5033632;28;44020;-76
2023/09/07 05:28:51;;;;;;;;;;;26.20;57.90;;;;;;5039114;28;43703;-84
2023/09/07 05:31:17;;;;;;;;;;;26.30;60.10;;;;;;5029330;28;43503;-79
2023/09/07 05:33:42;;;;;;;;;;;26.20;60.00;;;;;;5022466;28;43089;-86
2023/09/07 05:36:08;;;;;;;;;;;26.30;60.10;;;;;;5025001;28;42974;-79
2023/09/07 05:38:34;;;;;;;;;;;26.30;60.10;;;;;;5024042;28;43029;-81
2023/09/07 05:40:59;;;;;;;;;;;26.20;60.00;;;;;;5025345;28;43578;-76
2023/09/07 05:43:25;;;;;;;;;;;26.30;60.70;;;;;;5020448;28;42985;-83
2023/09/07 05:45:50;;;;;;;;;;;26.00;60.00;;;;;;5027912;28;43476;-76
2023/09/07 05:48:19;;;;;;;;;;;26.30;59.70;;;;;;5026676;28;42936;-78
2023/09/07 05:50:44;;;;;;;;;;;26.50;59.00;;;;;;5025793;28;42981;-79
2023/09/07 05:53:10;;;;;;;;;;;26.10;60.30;;;;;;5023839;28;43057;-79
2023/09/07 05:55:35;;;;;;;;;;;26.20;60.30;;;;;;5025809;28;43903;-78
2023/09/07 05:58:04;;;;;;;;;;;26.30;60.50;;;;;;5024932;28;42912;-75
2023/09/07 06:00:29;;;;;;;;;;;26.40;60.60;;;;;;5020002;28;43049;-76
2023/09/07 06:02:55;;;;;;;;;;;26.30;60.00;;;;;;5027280;28;43117;-78
2023/09/07 06:05:21;;;;;;;;;;;26.10;60.40;;;;;;5026348;28;43114;-79
2023/09/07 06:07:46;;;;;;;;;;;26.20;60.70;;;;;;5028007;28;42976;-77
2023/09/07 06:10:12;;;;;;;;;;;26.30;60.80;;;;;;5032952;28;43241;-76
2023/09/07 06:12:37;;;;;;;;;;;26.20;60.90;;;;;;5030147;28;42980;-78
2023/09/07 06:15:03;;;;;;;;;;;26.60;60.90;;;;;;5034098;28;43635;-76
2023/09/07 06:17:29;;;;;;;;;;;26.30;60.40;;;;;;5029503;28;43253;-78
2023/09/07 06:19:55;;;;;;;;;;;26.40;61.00;;;;;;5031008;28;43952;-79
2023/09/07 06:22:20;;;;;;;;;;;26.40;61.00;;;;;;5044673;28;43053;-76
2023/09/07 06:24:46;;;;;;;;;;;26.30;61.00;;;;;;5044485;28;43171;-76
2023/09/07 06:27:11;;;;;;;;;;;26.30;61.00;;;;;;5031892;28;43068;-76
2023/09/07 06:29:37;;;;;;;;;;;26.50;61.30;;;;;;5026760;28;43089;-76
2023/09/07 06:32:02;;;;;;;;;;;26.40;61.80;;;;;;5033789;28;43214;-76
2023/09/07 06:34:28;;;;;;;;;;;26.50;60.90;;;;;;5030167;28;43412;-76
2023/09/07 06:36:53;;;;;;;;;;;26.40;61.50;;;;;;5033607;28;42910;-76
2023/09/07 06:39:19;;;;;;;;;;;26.30;61.40;;;;;;5030755;28;43728;-76
2023/09/07 06:41:45;;;;;;;;;;;26.20;61.30;;;;;;5033274;28;43075;-76
2023/09/07 06:44:11;;;;;;;;;;;25.70;60.30;;;;;;5029828;28;43010;-76
2023/09/07 06:46:36;;;;;;;;;;;26.40;61.50;;;;;;5033530;28;43095;-78
2023/09/07 06:49:03;;;;;;;;;;;26.40;61.60;;;;;;5024616;28;43689;-76
2023/09/07 06:51:30;;;;;;;;;;;26.40;61.40;;;;;;4961941;28;1887296;-78
2023/09/07 06:53:55;;;;;;;;;;;26.60;61.10;;;;;;5024133;28;43656;-77
2023/09/07 06:56:21;;;;;;;;;;;26.30;61.70;;;;;;5034973;28;43148;-78
2023/09/07 06:58:46;;;;;;;;;;;26.40;61.60;;;;;;5045470;28;42992;-78
2023/09/07 07:01:12;;;;;;;;;;;26.50;61.70;;;;;;5045410;28;43099;-78
2023/09/07 07:03:37;;;;;;;;;;;26.50;61.50;;;;;;5044903;28;43244;-78
2023/09/07 07:06:03;;;;;;;;;;;26.50;61.70;;;;;;5044705;28;43095;-78
2023/09/07 07:08:28;;;;;;;;;;;26.60;61.80;;;;;;5039629;28;44337;-77
2023/09/07 07:10:54;;;;;;;;;;;26.50;61.70;;;;;;5031653;28;43037;-76
2023/09/07 07:13:20;;;;;;;;;;;26.50;61.80;;;;;;5036687;28;43675;-76
2023/09/07 07:15:46;;;;;;;;;;;26.60;62.30;;;;;;5040698;28;42998;-78
2023/09/07 07:18:11;;;;;;;;;;;26.60;62.50;;;;;;5029469;28;43899;-77
2023/09/07 07:20:41;;;;;;;;;;;26.30;62.00;;;;;;5007626;28;42820;-77
2023/09/07 07:23:07;;;;;;;;;;;26.60;62.20;;;;;;5024423;28;43405;-76
2023/09/07 07:25:36;;;;;;;;;;;26.40;61.90;;;;;;5026512;28;42920;-76
2023/09/07 07:28:05;;;;;;;;;;;26.60;61.60;;;;;;5025423;28;44007;-77
2023/09/07 07:30:34;;;;;;;;;;;26.40;59.80;;;;;;5026837;28;42997;-78
2023/09/07 07:33:00;;;;;;;;;;;26.50;59.70;;;;;;5027137;28;43041;-79
2023/09/07 07:35:26;;;;;;;;;;;26.50;62.00;;;;;;5026744;28;43093;-79
2023/09/07 07:37:52;;;;;;;;;;;26.30;61.90;;;;;;5027349;28;43492;-79
2023/09/07 07:40:18;;;;;;;;;;;26.30;61.70;;;;;;5028769;28;42932;-83
2023/09/07 07:42:43;;;;;;;;;;;26.40;61.90;;;;;;5029258;28;43455;-81
2023/09/07 07:45:09;;;;;;;;;;;26.40;61.60;;;;;;5031460;28;43209;-80
2023/09/07 07:47:35;;;;;;;;;;;26.40;61.30;;;;;;5029673;28;43712;-80
2023/09/07 07:50:00;;;;;;;;;;;26.30;61.50;;;;;;5018216;28;43054;-81
2023/09/07 07:52:26;;;;;;;;;;;26.50;61.50;;;;;;5031433;28;43022;-80
2023/09/07 07:54:52;;;;;;;;;;;26.20;61.30;;;;;;5040630;28;42833;-80
2023/09/07 07:57:18;;;;;;;;;;;26.50;61.70;;;;;;5038068;28;42918;-80
2023/09/07 07:59:43;;;;;;;;;;;26.30;60.90;;;;;;5034249;28;43000;-80
2023/09/07 08:02:09;;;;;;;;;;;26.80;61.90;;;;;;5022276;28;43510;-78
2023/09/07 08:04:35;;;;;;;;;;;26.40;61.40;;;;;;5032966;28;43034;-80
2023/09/07 08:07:04;;;;;;;;;;;26.30;61.60;;;;;;5036007;28;43817;-82
2023/09/07 08:09:31;;;;;;;;;;;26.30;61.30;;;;;;5030143;28;42966;-79
2023/09/07 08:11:57;;;;;;;;;;;26.40;61.40;;;;;;5025503;28;43588;-80
2023/09/07 08:14:23;;;;;;;;;;;26.40;61.80;;;;;;5028331;28;42878;-86
2023/09/07 08:16:49;;;;;;;;;;;26.40;61.20;;;;;;5021961;28;43517;-82
2023/09/07 08:19:15;;;;;;;;;;;26.30;60.80;;;;;;5028946;28;43027;-85
2023/09/07 08:21:42;;;;;;;;;;;26.50;60.00;;;;;;5025805;28;43155;-84
2023/09/07 08:24:08;;;;;;;;;;;26.30;59.30;;;;;;5022046;28;43095;-83
2023/09/07 08:26:33;;;;;;;;;;;26.30;58.90;;;;;;5024906;28;42785;-83
2023/09/07 08:28:59;;;;;;;;;;;26.30;59.20;;;;;;5028404;28;43221;-82
2023/09/07 08:31:24;;;;;;;;;;;26.40;58.20;;;;;;5036448;28;42999;-82
2023/09/07 08:33:54;;;;;;;;;;;26.30;58.70;;;;;;5037636;28;43078;-81
2023/09/07 08:36:22;;;;;;;;;;;26.40;58.30;;;;;;5042438;28;43874;-83
2023/09/07 08:38:47;;;;;;;;;;;26.50;58.80;;;;;;5029871;28;42968;-79
2023/09/07 08:41:14;;;;;;;;;;;26.30;58.60;;;;;;5024511;28;43001;-80
2023/09/07 08:43:45;;;;;;;;;;;26.30;58.70;;;;;;5025814;28;43012;-79
2023/09/07 08:46:15;;;;;;;;;;;26.30;58.60;;;;;;5039454;28;43122;-80
2023/09/07 08:48:42;;;;;;;;;;;26.40;58.60;;;;;;5032342;28;43436;-80
2023/09/07 08:51:07;;;;;;;;;;;26.40;58.20;;;;;;5026335;28;43036;-80
2023/09/07 08:53:33;;;;;;;;;;;26.40;58.40;;;;;;5026086;28;42989;-80
2023/09/07 08:56:00;;;;;;;;;;;26.50;58.50;;;;;;5036150;28;43511;-81
2023/09/07 08:58:26;;;;;;;;;;;26.50;58.00;;;;;;5030361;28;43156;-77
2023/09/07 09:00:52;;;;;;;;;;;26.50;58.00;;;;;;5024086;28;43902;-78
2023/09/07 09:03:18;;;;;;;;;;;26.30;57.70;;;;;;5025062;28;42982;-78
2023/09/07 09:05:44;;;;;;;;;;;26.50;58.00;;;;;;5032018;28;43692;-79
2023/09/07 09:08:09;;;;;;;;;;;26.30;57.90;;;;;;5028051;28;42979;-78
2023/09/07 09:10:37;;;;;;;;;;;26.40;57.60;;;;;;5032012;28;43446;-81
2023/09/07 09:13:03;;;;;;;;;;;26.30;57.20;;;;;;5027320;28;43143;-81
2023/09/07 09:15:28;;;;;;;;;;;26.30;57.30;;;;;;5027912;28;43643;-79
2023/09/07 09:17:54;;;;;;;;;;;26.30;56.90;;;;;;5018235;28;43119;-81
2023/09/07 09:20:28;;;;;;;;;;;26.20;56.70;;;;;;5032455;28;42957;-79
2023/09/07 09:22:54;;;;;;;;;;;26.30;56.50;;;;;;5029679;28;42943;-78
2023/09/07 09:25:20;;;;;;;;;;;26.50;56.70;;;;;;5027637;28;43482;-80
2023/09/07 09:27:46;;;;;;;;;;;26.40;57.20;;;;;;5021043;28;42893;-81
2023/09/07 09:30:15;;;;;;;;;;;26.40;56.80;;;;;;5032122;28;43770;-79
2023/09/07 09:32:41;;;;;;;;;;;26.50;56.60;;;;;;5020479;28;43369;-79
2023/09/07 09:35:07;;;;;;;;;;;26.70;56.70;;;;;;5027010;28;44324;-80
2023/09/07 09:37:33;;;;;;;;;;;26.30;56.20;;;;;;5034329;28;43358;-77
2023/09/07 09:40:00;;;;;;;;;;;26.30;56.30;;;;;;5034342;28;43993;-80
2023/09/07 09:42:26;;;;;;;;;;;26.50;56.90;;;;;;5026903;28;43002;-81
2023/09/07 09:44:52;;;;;;;;;;;26.40;56.90;;;;;;5032791;28;43148;-79
2023/09/07 09:47:18;;;;;;;;;;;26.60;57.10;;;;;;5033078;28;43034;-80
2023/09/07 09:49:44;;;;;;;;;;;26.30;57.40;;;;;;5018628;28;43823;-81
2023/09/07 09:52:11;;;;;;;;;;;26.50;57.10;;;;;;5026188;28;42984;-81
2023/09/07 09:54:38;;;;;;;;;;;26.40;57.10;;;;;;5032509;28;43324;-82
2023/09/07 09:57:03;;;;;;;;;;;26.40;57.20;;;;;;5019790;28;43012;-83
2023/09/07 09:59:29;;;;;;;;;;;26.50;57.30;;;;;;5031442;28;43127;-78
2023/09/07 10:01:55;;;;;;;;;;;26.50;57.40;;;;;;5030746;28;43001;-78
2023/09/07 10:04:22;;;;;;;;;;;26.40;57.40;;;;;;5028579;28;42947;-78
2023/09/07 10:06:54;;;;;;;;;;;26.70;57.80;;;;;;5032475;28;43179;-81
2023/09/07 10:09:20;;;;;;;;;;;26.60;55.70;;;;;;5037785;28;42849;-78
2023/09/07 10:11:50;;;;;;;;;;;26.40;57.90;;;;;;5035424;28;43021;-78
2023/09/07 10:14:16;;;;;;;;;;;26.50;57.60;;;;;;5028743;28;43285;-80
2023/09/07 10:16:45;;;;;;;;;;;27.30;58.20;;;;;;5028571;28;42946;-81
2023/09/07 10:19:14;;;;;;;;;;;26.50;55.40;;;;;;5026180;28;42976;-81
2023/09/07 10:21:40;;;;;;;;;;;26.50;55.30;;;;;;5032225;28;43175;-81
2023/09/07 10:24:06;;;;;;;;;;;26.60;57.60;;;;;;5026508;28;42949;-81
2023/09/07 10:26:31;;;;;;;;;;;26.60;57.50;;;;;;5022888;28;42847;-84
2023/09/07 10:29:03;;;;;;;;;;;26.60;57.60;;;;;;5033157;28;43700;-85
2023/09/07 10:31:30;;;;;;;;;;;26.60;55.60;;;;;;5030167;28;43069;-84
2023/09/07 10:33:55;;;;;;;;;;;26.50;57.30;;;;;;5025714;28;44164;-79
2023/09/07 10:36:22;;;;;;;;;;;26.70;57.40;;;;;;5030076;28;43045;-78
2023/09/07 10:38:48;;;;;;;;;;;26.50;56.80;;;;;;5033739;28;43497;-81
2023/09/07 10:41:13;;;;;;;;;;;26.70;57.10;;;;;;5024610;28;42995;-81
2023/09/07 10:43:46;;;;;;;;;;;26.70;57.30;;;;;;5023720;28;43263;-79
2023/09/07 10:46:12;;;;;;;;;;;26.70;57.20;;;;;;5036438;28;42920;-79
2023/09/07 10:48:37;;;;;;;;;;;26.20;56.80;;;;;;5033019;28;43003;-78
2023/09/07 10:51:03;;;;;;;;;;;26.60;57.30;;;;;;5027888;28;43251;-77
2023/09/07 10:53:29;;;;;;;;;;;26.60;57.20;;;;;;5029556;28;42992;-78
2023/09/07 10:55:57;;;;;;;;;;;26.70;57.10;;;;;;5035605;28;42916;-78
2023/09/07 10:58:27;;;;;;;;;;;26.80;57.10;;;;;;5029961;28;43348;-77
2023/09/07 11:00:53;;;;;;;;;;;26.60;55.20;;;;;;5028229;28;42914;-80
2023/09/07 11:03:18;;;;;;;;;;;26.50;57.10;;;;;;5033509;28;43674;-80
2023/09/07 11:05:44;;;;;;;;;;;26.50;57.20;;;;;;5035211;28;43005;-82
2023/09/07 11:08:09;;;;;;;;;;;26.70;57.30;;;;;;5023634;28;45570;-78
2023/09/07 11:10:36;;;;;;;;;;;26.60;57.20;;;;;;5033401;28;43051;-82
2023/09/07 11:13:05;;;;;;;;;;;26.50;57.20;;;;;;5036886;28;43971;-79
2023/09/07 11:15:33;;;;;;;;;;;27.10;55.70;;;;;;5039144;28;42986;-75
2023/09/07 11:18:04;;;;;;;;;;;26.60;57.40;;;;;;5038482;28;43080;-78
2023/09/07 11:20:29;;;;;;;;;;;26.70;57.20;;;;;;5023323;28;43068;-80
2023/09/07 11:22:55;;;;;;;;;;;26.80;57.10;;;;;;5033471;28;43028;-76
2023/09/07 11:25:21;;;;;;;;;;;26.70;56.60;;;;;;5019801;28;42984;-76
2023/09/07 11:27:46;;;;;;;;;;;26.60;57.00;;;;;;5028362;28;43722;-76
2023/09/07 11:30:12;;;;;;;;;;;26.80;57.50;;;;;;5023634;28;43096;-75
2023/09/07 11:32:38;;;;;;;;;;;26.70;57.20;;;;;;5022736;28;42958;-81
2023/09/07 11:35:07;;;;;;;;;;;26.50;57.20;;;;;;5023123;28;42927;-81
2023/09/07 11:37:32;;;;;;;;;;;26.70;56.60;;;;;;5025935;28;42934;-81
2023/09/07 11:39:58;;;;;;;;;;;26.90;56.40;;;;;;5025777;28;43231;-76
2023/09/07 11:42:23;;;;;;;;;;;26.70;56.00;;;;;;5027942;28;43435;-82
2023/09/07 11:44:49;;;;;;;;;;;26.80;55.80;;;;;;5039904;28;42984;-81
2023/09/07 11:47:14;;;;;;;;;;;26.90;56.00;;;;;;5040643;28;43786;-83
2023/09/07 11:49:40;;;;;;;;;;;26.80;55.60;;;;;;5042579;28;43187;-78
2023/09/07 11:52:05;;;;;;;;;;;26.70;55.60;;;;;;5015983;28;43340;-85
2023/09/07 11:54:31;;;;;;;;;;;26.70;55.80;;;;;;5030243;28;42978;-84
2023/09/07 11:56:57;;;;;;;;;;;26.80;55.60;;;;;;5026263;28;43034;-86
2023/09/07 11:59:23;;;;;;;;;;;26.60;55.30;;;;;;5031946;28;43450;-85
2023/09/07 12:01:48;;;;;;;;;;;26.80;55.50;;;;;;5024591;28;43378;-85
2023/09/07 12:04:14;;;;;;;;;;;26.80;55.30;;;;;;5039100;28;42984;-85
2023/09/07 12:06:40;;;;;;;;;;;26.60;55.30;;;;;;5037914;28;44824;-79
2023/09/07 12:09:09;;;;;;;;;;;27.10;55.10;;;;;;5041507;28;42949;-79
2023/09/07 12:11:35;;;;;;;;;;;26.70;55.20;;;;;;5021199;28;43768;-80
2023/09/07 12:14:01;;;;;;;;;;;26.80;55.20;;;;;;5030706;28;43036;-79
2023/09/07 12:16:27;;;;;;;;;;;26.70;54.90;;;;;;5027140;28;43328;-80
2023/09/07 12:18:53;;;;;;;;;;;26.90;55.40;;;;;;5025462;28;42936;-79
2023/09/07 12:21:19;;;;;;;;;;;26.70;55.20;;;;;;5036046;28;43609;-79
2023/09/07 12:23:44;;;;;;;;;;;27.60;55.40;;;;;;5019563;28;43283;-81
2023/09/07 12:26:10;;;;;;;;;;;27.50;55.50;;;;;;5027823;28;43363;-79
2023/09/07 12:28:36;;;;;;;;;;;26.60;54.60;;;;;;5029014;28;43061;-80
2023/09/07 12:31:01;;;;;;;;;;;26.80;55.10;;;;;;5035936;28;42830;-80
2023/09/07 12:33:30;;;;;;;;;;;26.90;55.00;;;;;;5031510;28;42908;-80
2023/09/07 12:35:55;;;;;;;;;;;26.80;55.10;;;;;;5027780;28;44437;-80
2023/09/07 12:38:24;;;;;;;;;;;26.90;55.20;;;;;;5034959;28;43031;-78
2023/09/07 12:40:50;;;;;;;;;;;26.80;55.10;;;;;;5032970;28;43421;-80
2023/09/07 12:43:15;;;;;;;;;;;26.80;54.90;;;;;;5027566;28;43104;-78
2023/09/07 12:45:41;;;;;;;;;;;26.80;54.70;;;;;;5031551;28;43666;-78
2023/09/07 12:48:07;;;;;;;;;;;26.80;54.70;;;;;;5035784;28;42940;-79
2023/09/07 12:50:32;;;;;;;;;;;26.80;54.60;;;;;;5029271;28;42835;-78
2023/09/07 12:52:58;;;;;;;;;;;26.80;54.80;;;;;;5027983;28;43284;-79
2023/09/07 12:55:24;;;;;;;;;;;26.90;54.90;;;;;;5036515;28;43365;-79
2023/09/07 12:57:50;;;;;;;;;;;26.80;54.00;;;;;;5035039;28;43587;-77
2023/09/07 13:00:16;;;;;;;;;;;27.20;55.20;;;;;;5027586;28;43943;-80
2023/09/07 13:02:41;;;;;;;;;;;26.80;54.90;;;;;;5037679;28;42978;-80
2023/09/07 13:05:07;;;;;;;;;;;26.80;54.80;;;;;;5034641;28;43590;-79
2023/09/07 13:07:34;;;;;;;;;;;26.90;54.50;;;;;;5031591;28;42928;-79
2023/09/07 13:10:02;;;;;;;;;;;26.80;54.90;;;;;;5032874;28;42946;-79
2023/09/07 13:12:28;;;;;;;;;;;26.80;54.90;;;;;;5039655;28;42886;-79
2023/09/07 13:14:53;;;;;;;;;;;26.80;54.60;;;;;;5030368;28;43077;-79
2023/09/07 13:17:19;;;;;;;;;;;26.90;54.90;;;;;;5027889;28;42948;-78
2023/09/07 13:19:45;;;;;;;;;;;26.90;55.00;;;;;;5026659;28;43485;-78
2023/09/07 13:22:10;;;;;;;;;;;26.80;54.50;;;;;;5043314;28;42997;-76
2023/09/07 13:24:36;;;;;;;;;;;26.70;54.80;;;;;;5037915;28;43545;-76
2023/09/07 13:27:03;;;;;;;;;;;26.80;55.00;;;;;;5026063;28;43036;-79
2023/09/07 13:29:29;;;;;;;;;;;26.80;55.00;;;;;;5041607;28;44114;-77
2023/09/07 13:31:54;;;;;;;;;;;26.80;55.30;;;;;;5043276;28;42969;-79
2023/09/07 13:34:21;;;;;;;;;;;26.90;55.30;;;;;;5041799;28;42839;-76
2023/09/07 13:36:46;;;;;;;;;;;27.00;55.30;;;;;;5033692;28;43055;-80
2023/09/07 13:39:12;;;;;;;;;;;27.00;55.20;;;;;;5023855;28;43073;-75
2023/09/07 13:41:37;;;;;;;;;;;27.00;55.10;;;;;;5029776;28;43216;-78
2023/09/07 13:44:03;;;;;;;;;;;27.00;55.20;;;;;;5030731;28;42988;-79
2023/09/07 13:46:29;;;;;;;;;;;27.00;54.40;;;;;;5039504;28;43059;-80
2023/09/07 13:48:54;;;;;;;;;;;26.90;54.40;;;;;;5031523;28;43703;-77
2023/09/07 13:51:20;;;;;;;;;;;27.10;55.10;;;;;;5039129;28;43629;-79
2023/09/07 13:53:45;;;;;;;;;;;27.00;54.50;;;;;;5035293;28;42981;-79
2023/09/07 13:56:11;;;;;;;;;;;26.90;54.50;;;;;;5038782;28;42958;-78
2023/09/07 13:58:37;;;;;;;;;;;27.10;54.50;;;;;;5026707;28;43579;-78
2023/09/07 14:01:02;;;;;;;;;;;27.20;54.40;;;;;;5030197;28;43459;-78
2023/09/07 14:03:27;;;;;;;;;;;27.00;54.00;;;;;;5026598;28;43012;-79
2023/09/07 14:05:53;;;;;;;;;;;27.00;54.40;;;;;;5025910;28;43007;-79
2023/09/07 14:08:23;;;;;;;;;;;26.90;54.30;;;;;;5029975;28;43368;-78